sensor_id;sensor_type;location;lat;lon;timestamp;pressure;altitude;pressure_sealevel;temperature;humidity
15489;BME280;7846;48.830;9.116;2022-12-29T00:02:14;97405.97;;;15.37;49.48
15489;BME280;7846;48.830;9.116;2022-12-29T00:04:40;97405.13;;;15.30;49.56
15489;BME280;7846;48.830;9.116;2022-12-29T00:07:05;97405.03;;;15.58;49.25
15489;BME280;7846;48.830;9.116;2022-12-29T00:09:31;97409.53;;;15.16;49.97
15489;BME280;7846;48.830;9.116;2022-12-29T00:11:58;97402.84;;;14.85;50.48
15489;BME280;7846;48.830;9.116;2022-12-29T00:14:24;97389.94;;;14.75;50.85
15489;BME280;7846;48.830;9.116;2022-12-29T00:17:08;97381.75;;;14.98;50.31
15489;BME280;7846;48.830;9.116;2022-12-29T00:19:35;97379.44;;;14.89;49.94
15489;BME280;7846;48.830;9.116;2022-12-29T00:22:19;97382.00;;;14.75;50.44
15489;BME280;7846;48.830;9.116;2022-12-29T00:25:07;97379.44;;;14.89;50.27
15489;BME280;7846;48.830;9.116;2022-12-29T00:27:52;97375.53;;;14.50;51.36
15489;BME280;7846;48.830;9.116;2022-12-29T00:30:36;97371.00;;;15.20;50.04
15489;BME280;7846;48.830;9.116;2022-12-29T00:33:26;97368.97;;;15.15;50.14
15489;BME280;7846;48.830;9.116;2022-12-29T00:36:16;97371.06;;;14.57;51.33
15489;BME280;7846;48.830;9.116;2022-12-29T00:38:59;97371.75;;;15.00;50.14
15489;BME280;7846;48.830;9.116;2022-12-29T00:41:44;97361.56;;;15.04;50.09
15489;BME280;7846;48.830;9.116;2022-12-29T00:44:29;97361.13;;;15.48;49.49
15489;BME280;7846;48.830;9.116;2022-12-29T00:46:54;97366.50;;;15.14;49.90
15489;BME280;7846;48.830;9.116;2022-12-29T00:49:20;97368.78;;;15.23;49.52
15489;BME280;7846;48.830;9.116;2022-12-29T00:52:08;97360.09;;;15.49;49.70
15489;BME280;7846;48.830;9.116;2022-12-29T00:54:38;97359.25;;;15.42;49.70
15489;BME280;7846;48.830;9.116;2022-12-29T00:57:05;97357.84;;;14.92;50.41
15489;BME280;7846;48.830;9.116;2022-12-29T00:59:31;97352.34;;;15.48;49.71
15489;BME280;7846;48.830;9.116;2022-12-29T01:01:57;97361.41;;;15.67;49.27
15489;BME280;7846;48.830;9.116;2022-12-29T01:04:24;97357.44;;;15.43;49.31
15489;BME280;7846;48.830;9.116;2022-12-29T01:06:50;97364.84;;;15.06;50.20
15489;BME280;7846;48.830;9.116;2022-12-29T01:09:16;97364.47;;;15.09;50.40
15489;BME280;7846;48.830;9.116;2022-12-29T01:12:01;97366.16;;;15.30;49.77
15489;BME280;7846;48.830;9.116;2022-12-29T01:14:27;97369.13;;;15.07;49.97
15489;BME280;7846;48.830;9.116;2022-12-29T01:16:55;97379.50;;;15.50;49.94
15489;BME280;7846;48.830;9.116;2022-12-29T01:19:20;97376.16;;;15.35;49.85
15489;BME280;7846;48.830;9.116;2022-12-29T01:21:47;97380.84;;;16.01;48.89
15489;BME280;7846;48.830;9.116;2022-12-29T01:24:13;97380.47;;;16.24;48.24
15489;BME280;7846;48.830;9.116;2022-12-29T01:26:39;97377.81;;;16.17;48.16
15489;BME280;7846;48.830;9.116;2022-12-29T01:29:04;97377.78;;;15.84;48.94
15489;BME280;7846;48.830;9.116;2022-12-29T01:31:30;97377.19;;;15.95;48.83
15489;BME280;7846;48.830;9.116;2022-12-29T01:33:56;97383.69;;;15.86;48.87
15489;BME280;7846;48.830;9.116;2022-12-29T01:36:21;97372.53;;;15.49;49.61
15489;BME280;7846;48.830;9.116;2022-12-29T01:38:47;97376.84;;;15.57;49.15
15489;BME280;7846;48.830;9.116;2022-12-29T01:41:14;97373.28;;;15.78;49.00
15489;BME280;7846;48.830;9.116;2022-12-29T01:43:42;97372.22;;;15.72;49.37
15489;BME280;7846;48.830;9.116;2022-12-29T01:46:34;97370.41;;;15.66;49.59
15489;BME280;7846;48.830;9.116;2022-12-29T01:49:15;97381.00;;;15.66;49.41
15489;BME280;7846;48.830;9.116;2022-12-29T01:51:47;97375.34;;;15.89;48.75
15489;BME280;7846;48.830;9.116;2022-12-29T01:54:28;97375.31;;;15.69;49.04
15489;BME280;7846;48.830;9.116;2022-12-29T01:56:59;97369.22;;;16.08;48.91
15489;BME280;7846;48.830;9.116;2022-12-29T01:59:29;97369.59;;;15.65;49.38
15489;BME280;7846;48.830;9.116;2022-12-29T02:02:00;97366.38;;;16.43;47.90
15489;BME280;7846;48.830;9.116;2022-12-29T02:04:26;97361.84;;;15.90;48.55
15489;BME280;7846;48.830;9.116;2022-12-29T02:07:00;97353.09;;;16.43;47.88
15489;BME280;7846;48.830;9.116;2022-12-29T02:09:26;97358.34;;;15.70;48.47
15489;BME280;7846;48.830;9.116;2022-12-29T02:11:52;97359.00;;;15.85;48.50
15489;BME280;7846;48.830;9.116;2022-12-29T02:14:17;97355.00;;;15.48;49.30
15489;BME280;7846;48.830;9.116;2022-12-29T02:22:34;97343.28;;;16.10;48.30
15489;BME280;7846;48.830;9.116;2022-12-29T02:27:55;97344.31;;;16.23;48.22
15489;BME280;7846;48.830;9.116;2022-12-29T02:30:41;97344.28;;;15.89;48.38
15489;BME280;7846;48.830;9.116;2022-12-29T02:39:21;97347.13;;;16.81;46.69
15489;BME280;7846;48.830;9.116;2022-12-29T02:47:26;97330.59;;;16.52;47.08
15489;BME280;7846;48.830;9.116;2022-12-29T02:50:02;97330.81;;;16.31;47.67
15489;BME280;7846;48.830;9.116;2022-12-29T02:52:36;97339.19;;;16.48;47.30
15489;BME280;7846;48.830;9.116;2022-12-29T02:55:03;97334.91;;;16.20;47.70
15489;BME280;7846;48.830;9.116;2022-12-29T02:57:32;97336.53;;;16.54;47.27
15489;BME280;7846;48.830;9.116;2022-12-29T03:00:13;97335.72;;;16.40;47.27
15489;BME280;7846;48.830;9.116;2022-12-29T03:02:51;97338.59;;;16.39;47.67
15489;BME280;7846;48.830;9.116;2022-12-29T03:05:57;97332.84;;;16.55;47.23
15489;BME280;7846;48.830;9.116;2022-12-29T03:08:51;97341.66;;;16.29;47.65
15489;BME280;7846;48.830;9.116;2022-12-29T03:11:21;97336.97;;;16.18;47.66
15489;BME280;7846;48.830;9.116;2022-12-29T03:14:21;97335.31;;;16.04;48.14
15489;BME280;7846;48.830;9.116;2022-12-29T03:17:17;97324.28;;;16.40;47.75
15489;BME280;7846;48.830;9.116;2022-12-29T03:19:47;97322.84;;;16.31;47.42
15489;BME280;7846;48.830;9.116;2022-12-29T03:22:19;97315.03;;;16.76;47.11
15489;BME280;7846;48.830;9.116;2022-12-29T03:24:56;97311.22;;;16.32;47.49
15489;BME280;7846;48.830;9.116;2022-12-29T03:27:27;97316.94;;;16.22;47.78
15489;BME280;7846;48.830;9.116;2022-12-29T03:29:58;97313.03;;;16.38;47.90
15489;BME280;7846;48.830;9.116;2022-12-29T03:32:33;97314.28;;;15.95;48.63
15489;BME280;7846;48.830;9.116;2022-12-29T03:35:04;97311.84;;;16.01;48.71
15489;BME280;7846;48.830;9.116;2022-12-29T03:37:37;97301.63;;;15.78;48.69
15489;BME280;7846;48.830;9.116;2022-12-29T03:40:07;97305.50;;;15.88;48.35
15489;BME280;7846;48.830;9.116;2022-12-29T03:42:36;97300.97;;;16.42;47.59
15489;BME280;7846;48.830;9.116;2022-12-29T03:45:05;97291.22;;;16.09;48.34
15489;BME280;7846;48.830;9.116;2022-12-29T03:47:31;97290.19;;;16.17;47.95
15489;BME280;7846;48.830;9.116;2022-12-29T03:49:59;97289.16;;;16.11;48.28
15489;BME280;7846;48.830;9.116;2022-12-29T03:52:31;97283.47;;;15.88;48.87
15489;BME280;7846;48.830;9.116;2022-12-29T03:54:56;97285.91;;;15.89;48.71
15489;BME280;7846;48.830;9.116;2022-12-29T03:57:22;97298.38;;;15.95;48.73
15489;BME280;7846;48.830;9.116;2022-12-29T03:59:47;97294.06;;;16.08;48.47
15489;BME280;7846;48.830;9.116;2022-12-29T04:02:12;97301.00;;;15.76;49.11
15489;BME280;7846;48.830;9.116;2022-12-29T04:04:43;97291.97;;;15.57;49.82
15489;BME280;7846;48.830;9.116;2022-12-29T04:07:08;97294.84;;;15.62;49.57
15489;BME280;7846;48.830;9.116;2022-12-29T04:09:34;97291.59;;;15.86;49.49
15489;BME280;7846;48.830;9.116;2022-12-29T04:11:59;97293.22;;;15.67;49.59
15489;BME280;7846;48.830;9.116;2022-12-29T04:14:24;97301.84;;;15.96;49.39
15489;BME280;7846;48.830;9.116;2022-12-29T04:16:50;97307.97;;;15.77;49.48
15489;BME280;7846;48.830;9.116;2022-12-29T04:19:15;97311.22;;;15.65;50.08
15489;BME280;7846;48.830;9.116;2022-12-29T04:21:41;97319.72;;;15.61;50.10
15489;BME280;7846;48.830;9.116;2022-12-29T04:24:10;97319.19;;;16.18;48.74
15489;BME280;7846;48.830;9.116;2022-12-29T04:26:36;97315.91;;;16.36;48.73
15489;BME280;7846;48.830;9.116;2022-12-29T04:29:01;97314.28;;;15.89;49.38
15489;BME280;7846;48.830;9.116;2022-12-29T04:31:27;97328.69;;;15.53;50.31
15489;BME280;7846;48.830;9.116;2022-12-29T04:33:53;97308.56;;;16.05;49.54
15489;BME280;7846;48.830;9.116;2022-12-29T04:36:19;97295.09;;;15.80;50.16
15489;BME280;7846;48.830;9.116;2022-12-29T04:38:45;97299.72;;;15.52;50.79
15489;BME280;7846;48.830;9.116;2022-12-29T04:41:11;97301.00;;;15.82;49.87
15489;BME280;7846;48.830;9.116;2022-12-29T04:43:37;97303.66;;;15.76;50.38
15489;BME280;7846;48.830;9.116;2022-12-29T04:46:04;97306.16;;;15.22;52.11
15489;BME280;7846;48.830;9.116;2022-12-29T04:48:31;97300.88;;;15.22;52.17
15489;BME280;7846;48.830;9.116;2022-12-29T04:50:56;97300.47;;;15.25;51.94
15489;BME280;7846;48.830;9.116;2022-12-29T04:53:22;97308.09;;;15.55;51.68
15489;BME280;7846;48.830;9.116;2022-12-29T04:55:51;97297.25;;;15.37;52.09
15489;BME280;7846;48.830;9.116;2022-12-29T04:58:18;97302.63;;;15.70;51.34
15489;BME280;7846;48.830;9.116;2022-12-29T05:00:44;97300.69;;;15.37;52.57
15489;BME280;7846;48.830;9.116;2022-12-29T05:03:11;97309.88;;;15.35;52.79
15489;BME280;7846;48.830;9.116;2022-12-29T05:05:37;97300.94;;;15.49;52.40
15489;BME280;7846;48.830;9.116;2022-12-29T05:08:04;97295.56;;;15.22;53.05
15489;BME280;7846;48.830;9.116;2022-12-29T05:10:29;97290.25;;;15.22;53.24
15489;BME280;7846;48.830;9.116;2022-12-29T05:12:57;97280.69;;;15.28;53.07
15489;BME280;7846;48.830;9.116;2022-12-29T05:15:22;97288.06;;;15.33;53.30
15489;BME280;7846;48.830;9.116;2022-12-29T05:17:48;97291.13;;;15.36;52.76
15489;BME280;7846;48.830;9.116;2022-12-29T05:20:13;97283.28;;;15.08;53.77
15489;BME280;7846;48.830;9.116;2022-12-29T05:22:42;97264.97;;;15.20;53.45
15489;BME280;7846;48.830;9.116;2022-12-29T05:25:10;97255.84;;;15.49;53.32
15489;BME280;7846;48.830;9.116;2022-12-29T05:27:35;97293.28;;;15.06;53.57
15489;BME280;7846;48.830;9.116;2022-12-29T05:30:01;97289.91;;;15.45;53.09
15489;BME280;7846;48.830;9.116;2022-12-29T05:32:27;97296.44;;;15.49;53.01
15489;BME280;7846;48.830;9.116;2022-12-29T05:34:53;97299.31;;;15.48;53.12
15489;BME280;7846;48.830;9.116;2022-12-29T05:37:22;97303.78;;;15.47;52.83
15489;BME280;7846;48.830;9.116;2022-12-29T05:39:47;97293.66;;;15.84;52.28
15489;BME280;7846;48.830;9.116;2022-12-29T05:42:13;97299.00;;;15.91;51.94
15489;BME280;7846;48.830;9.116;2022-12-29T05:44:38;97287.31;;;15.79;52.30
15489;BME280;7846;48.830;9.116;2022-12-29T05:47:03;97296.50;;;16.16;51.50
15489;BME280;7846;48.830;9.116;2022-12-29T05:49:29;97298.56;;;16.01;51.73
15489;BME280;7846;48.830;9.116;2022-12-29T05:51:55;97295.72;;;16.02;51.81
15489;BME280;7846;48.830;9.116;2022-12-29T05:54:21;97306.31;;;15.89;52.13
15489;BME280;7846;48.830;9.116;2022-12-29T05:56:48;97288.38;;;15.91;52.29
15489;BME280;7846;48.830;9.116;2022-12-29T05:59:14;97278.94;;;16.02;51.80
15489;BME280;7846;48.830;9.116;2022-12-29T06:01:40;97288.56;;;15.96;51.68
15489;BME280;7846;48.830;9.116;2022-12-29T06:04:06;97277.53;;;16.06;51.51
15489;BME280;7846;48.830;9.116;2022-12-29T06:06:35;97259.66;;;16.59;50.59
15489;BME280;7846;48.830;9.116;2022-12-29T06:09:00;97264.25;;;15.79;51.57
15489;BME280;7846;48.830;9.116;2022-12-29T06:11:25;97242.41;;;15.90;52.04
15489;BME280;7846;48.830;9.116;2022-12-29T06:13:51;97261.38;;;15.67;51.70
15489;BME280;7846;48.830;9.116;2022-12-29T06:16:17;97271.38;;;15.59;52.62
15489;BME280;7846;48.830;9.116;2022-12-29T06:18:43;97259.31;;;15.49;52.35
15489;BME280;7846;48.830;9.116;2022-12-29T06:21:08;97274.88;;;15.79;51.92
15489;BME280;7846;48.830;9.116;2022-12-29T06:23:35;97276.06;;;15.63;51.99
15489;BME280;7846;48.830;9.116;2022-12-29T06:26:00;97280.34;;;15.58;52.95
15489;BME280;7846;48.830;9.116;2022-12-29T06:28:27;97286.47;;;15.65;52.18
15489;BME280;7846;48.830;9.116;2022-12-29T06:30:52;97278.75;;;15.83;51.61
15489;BME280;7846;48.830;9.116;2022-12-29T06:33:18;97278.16;;;15.81;52.04
15489;BME280;7846;48.830;9.116;2022-12-29T06:35:44;97272.22;;;15.92;51.76
15489;BME280;7846;48.830;9.116;2022-12-29T06:38:11;97278.13;;;15.68;52.31
15489;BME280;7846;48.830;9.116;2022-12-29T06:40:36;97276.50;;;15.67;52.06
15489;BME280;7846;48.830;9.116;2022-12-29T06:43:02;97269.56;;;15.92;51.40
15489;BME280;7846;48.830;9.116;2022-12-29T06:45:27;97266.47;;;15.62;51.78
15489;BME280;7846;48.830;9.116;2022-12-29T06:47:53;97276.09;;;15.70;51.90
15489;BME280;7846;48.830;9.116;2022-12-29T06:50:19;97271.19;;;15.67;51.79
15489;BME280;7846;48.830;9.116;2022-12-29T06:52:47;97267.53;;;15.81;51.78
15489;BME280;7846;48.830;9.116;2022-12-29T06:55:14;97263.41;;;15.52;52.13
15489;BME280;7846;48.830;9.116;2022-12-29T06:57:40;97269.16;;;15.82;51.73
15489;BME280;7846;48.830;9.116;2022-12-29T07:00:06;97264.66;;;15.89;51.28
15489;BME280;7846;48.830;9.116;2022-12-29T07:02:38;97268.94;;;16.04;50.91
15489;BME280;7846;48.830;9.116;2022-12-29T07:05:06;97269.50;;;15.53;51.71
15489;BME280;7846;48.830;9.116;2022-12-29T07:07:34;97266.47;;;15.56;51.26
15489;BME280;7846;48.830;9.116;2022-12-29T07:10:00;97272.66;;;15.76;51.05
15489;BME280;7846;48.830;9.116;2022-12-29T07:12:25;97283.25;;;15.96;51.02
15489;BME280;7846;48.830;9.116;2022-12-29T07:14:51;97273.03;;;16.06;50.70
15489;BME280;7846;48.830;9.116;2022-12-29T07:17:16;97266.09;;;15.99;50.76
15489;BME280;7846;48.830;9.116;2022-12-29T07:19:42;97274.06;;;15.65;51.25
15489;BME280;7846;48.830;9.116;2022-12-29T07:22:09;97275.28;;;15.69;51.38
15489;BME280;7846;48.830;9.116;2022-12-29T07:24:34;97276.66;;;15.59;51.38
15489;BME280;7846;48.830;9.116;2022-12-29T07:27:01;97278.34;;;15.93;51.22
15489;BME280;7846;48.830;9.116;2022-12-29T07:29:26;97282.44;;;16.02;50.35
15489;BME280;7846;48.830;9.116;2022-12-29T07:31:53;97284.19;;;15.35;51.49
15489;BME280;7846;48.830;9.116;2022-12-29T07:34:18;97281.00;;;15.86;50.71
15489;BME280;7846;48.830;9.116;2022-12-29T07:36:43;97282.81;;;16.12;50.08
15489;BME280;7846;48.830;9.116;2022-12-29T07:39:09;97279.91;;;15.61;50.87
15489;BME280;7846;48.830;9.116;2022-12-29T07:41:34;97275.03;;;15.51;50.60
15489;BME280;7846;48.830;9.116;2022-12-29T07:44:01;97278.97;;;15.95;50.11
15489;BME280;7846;48.830;9.116;2022-12-29T07:46:26;97284.88;;;15.90;50.08
15489;BME280;7846;48.830;9.116;2022-12-29T07:48:52;97280.59;;;15.89;50.10
15489;BME280;7846;48.830;9.116;2022-12-29T07:51:18;97285.28;;;15.81;50.58
15489;BME280;7846;48.830;9.116;2022-12-29T07:53:45;97274.63;;;15.61;50.80
15489;BME280;7846;48.830;9.116;2022-12-29T07:56:10;97282.72;;;15.26;51.62
15489;BME280;7846;48.830;9.116;2022-12-29T07:58:36;97284.22;;;15.62;50.86
15489;BME280;7846;48.830;9.116;2022-12-29T08:01:04;97286.88;;;15.55;50.65
15489;BME280;7846;48.830;9.116;2022-12-29T08:03:30;97297.94;;;15.72;50.08
15489;BME280;7846;48.830;9.116;2022-12-29T08:05:56;97296.50;;;15.83;50.84
15489;BME280;7846;48.830;9.116;2022-12-29T08:08:21;97308.16;;;16.08;49.93
15489;BME280;7846;48.830;9.116;2022-12-29T08:10:49;97306.94;;;15.78;49.88
15489;BME280;7846;48.830;9.116;2022-12-29T08:13:15;97314.41;;;15.61;50.72
15489;BME280;7846;48.830;9.116;2022-12-29T08:15:41;97316.31;;;15.93;50.09
15489;BME280;7846;48.830;9.116;2022-12-29T08:18:06;97316.06;;;15.62;50.90
15489;BME280;7846;48.830;9.116;2022-12-29T08:20:32;97329.78;;;15.65;50.52
15489;BME280;7846;48.830;9.116;2022-12-29T08:22:57;97317.75;;;15.89;50.20
15489;BME280;7846;48.830;9.116;2022-12-29T08:25:25;97319.63;;;16.02;49.79
15489;BME280;7846;48.830;9.116;2022-12-29T08:27:57;97314.69;;;15.86;50.53
15489;BME280;7846;48.830;9.116;2022-12-29T08:30:26;97303.81;;;15.61;50.55
15489;BME280;7846;48.830;9.116;2022-12-29T08:32:53;97303.63;;;15.62;50.52
15489;BME280;7846;48.830;9.116;2022-12-29T08:35:19;97306.31;;;15.95;50.12
15489;BME280;7846;48.830;9.116;2022-12-29T08:37:47;97304.47;;;15.83;50.22
15489;BME280;7846;48.830;9.116;2022-12-29T08:40:13;97294.69;;;15.90;50.14
15489;BME280;7846;48.830;9.116;2022-12-29T08:42:39;97298.34;;;15.89;49.75
15489;BME280;7846;48.830;9.116;2022-12-29T08:45:07;97294.88;;;15.82;50.13
15489;BME280;7846;48.830;9.116;2022-12-29T08:47:35;97293.84;;;15.83;49.90
15489;BME280;7846;48.830;9.116;2022-12-29T08:50:02;97298.91;;;15.64;50.63
15489;BME280;7846;48.830;9.116;2022-12-29T08:52:27;97298.91;;;15.64;50.27
15489;BME280;7846;48.830;9.116;2022-12-29T08:54:53;97304.47;;;15.89;50.13
15489;BME280;7846;48.830;9.116;2022-12-29T08:57:20;97304.69;;;15.81;50.16
15489;BME280;7846;48.830;9.116;2022-12-29T08:59:45;97311.81;;;15.94;50.11
15489;BME280;7846;48.830;9.116;2022-12-29T09:02:12;97306.72;;;16.12;50.02
15489;BME280;7846;48.830;9.116;2022-12-29T09:04:37;97316.94;;;16.09;49.88
15489;BME280;7846;48.830;9.116;2022-12-29T09:07:03;97314.06;;;16.24;49.46
15489;BME280;7846;48.830;9.116;2022-12-29T09:09:28;97315.72;;;16.11;49.54
15489;BME280;7846;48.830;9.116;2022-12-29T09:11:55;97325.31;;;16.39;49.00
15489;BME280;7846;48.830;9.116;2022-12-29T09:14:20;97326.13;;;16.39;48.28
15489;BME280;7846;48.830;9.116;2022-12-29T09:16:46;97327.16;;;16.32;49.09
15489;BME280;7846;48.830;9.116;2022-12-29T09:19:30;97334.66;;;16.75;48.96
15489;BME280;7846;48.830;9.116;2022-12-29T09:21:56;97334.44;;;16.69;48.36
15489;BME280;7846;48.830;9.116;2022-12-29T09:24:22;97348.16;;;16.80;48.30
15489;BME280;7846;48.830;9.116;2022-12-29T09:26:47;97341.84;;;17.26;47.90
15489;BME280;7846;48.830;9.116;2022-12-29T09:29:13;97337.72;;;17.68;47.33
15489;BME280;7846;48.830;9.116;2022-12-29T09:31:38;97343.09;;;17.23;47.41
15489;BME280;7846;48.830;9.116;2022-12-29T09:34:03;97347.94;;;17.78;47.02
15489;BME280;7846;48.830;9.116;2022-12-29T09:36:29;97351.81;;;18.13;46.16
15489;BME280;7846;48.830;9.116;2022-12-29T09:38:56;97352.38;;;17.52;46.93
15489;BME280;7846;48.830;9.116;2022-12-29T09:41:29;97355.28;;;17.82;46.38
15489;BME280;7846;48.830;9.116;2022-12-29T09:46:46;97356.31;;;17.81;46.70
15489;BME280;7846;48.830;9.116;2022-12-29T09:51:51;97352.00;;;18.12;46.02
15489;BME280;7846;48.830;9.116;2022-12-29T09:54:56;97350.84;;;18.01;46.09
15489;BME280;7846;48.830;9.116;2022-12-29T09:57:29;97369.72;;;18.00;46.49
15489;BME280;7846;48.830;9.116;2022-12-29T10:00:05;97343.84;;;18.07;46.69
15489;BME280;7846;48.830;9.116;2022-12-29T10:02:41;97351.00;;;17.81;47.12
15489;BME280;7846;48.830;9.116;2022-12-29T10:08:39;97365.09;;;17.50;47.68
15489;BME280;7846;48.830;9.116;2022-12-29T10:11:19;97346.88;;;17.47;48.34
15489;BME280;7846;48.830;9.116;2022-12-29T10:16:39;97352.38;;;17.52;48.69
15489;BME280;7846;48.830;9.116;2022-12-29T10:19:46;97347.19;;;17.64;48.40
15489;BME280;7846;48.830;9.116;2022-12-29T10:22:42;97352.69;;;17.24;48.44
15489;BME280;7846;48.830;9.116;2022-12-29T10:25:32;97352.06;;;17.67;48.85
15489;BME280;7846;48.830;9.116;2022-12-29T10:28:06;97363.41;;;17.56;48.68
15489;BME280;7846;48.830;9.116;2022-12-29T10:30:37;97351.69;;;17.18;49.10
15489;BME280;7846;48.830;9.116;2022-12-29T10:33:06;97355.03;;;17.90;47.98
15489;BME280;7846;48.830;9.116;2022-12-29T10:35:35;97358.84;;;18.01;48.03
15489;BME280;7846;48.830;9.116;2022-12-29T10:38:25;97343.16;;;18.18;47.24
15489;BME280;7846;48.830;9.116;2022-12-29T10:41:13;97358.06;;;18.51;47.09
15489;BME280;7846;48.830;9.116;2022-12-29T10:43:45;97357.25;;;18.50;47.51
15489;BME280;7846;48.830;9.116;2022-12-29T10:46:17;97351.41;;;18.10;47.91
15489;BME280;7846;48.830;9.116;2022-12-29T10:48:43;97353.41;;;17.89;48.33
15489;BME280;7846;48.830;9.116;2022-12-29T10:51:20;97354.91;;;18.35;47.96
15489;BME280;7846;48.830;9.116;2022-12-29T10:53:51;97354.56;;;18.50;47.28
15489;BME280;7846;48.830;9.116;2022-12-29T10:56:34;97357.25;;;17.94;47.57
15489;BME280;7846;48.830;9.116;2022-12-29T10:59:24;97344.91;;;18.06;48.15
15489;BME280;7846;48.830;9.116;2022-12-29T11:04:54;97351.19;;;18.61;47.08
15489;BME280;7846;48.830;9.116;2022-12-29T11:07:23;97356.53;;;18.36;47.51
15489;BME280;7846;48.830;9.116;2022-12-29T11:09:51;97348.53;;;18.11;47.34
15489;BME280;7846;48.830;9.116;2022-12-29T11:12:25;97349.59;;;18.54;47.72
15489;BME280;7846;48.830;9.116;2022-12-29T11:17:52;97360.34;;;18.47;47.38
15489;BME280;7846;48.830;9.116;2022-12-29T11:20:36;97362.66;;;18.37;47.74
15489;BME280;7846;48.830;9.116;2022-12-29T11:23:22;97364.84;;;18.47;47.32
15489;BME280;7846;48.830;9.116;2022-12-29T11:26:22;97364.94;;;18.08;47.81
15489;BME280;7846;48.830;9.116;2022-12-29T11:31:28;97342.09;;;17.56;47.80
15489;BME280;7846;48.830;9.116;2022-12-29T11:33:55;97364.16;;;17.76;48.24
15489;BME280;7846;48.830;9.116;2022-12-29T11:36:24;97359.53;;;18.22;47.64
15489;BME280;7846;48.830;9.116;2022-12-29T11:38:52;97358.22;;;18.06;47.51
15489;BME280;7846;48.830;9.116;2022-12-29T11:41:23;97360.00;;;18.12;46.69
15489;BME280;7846;48.830;9.116;2022-12-29T11:43:53;97360.91;;;17.61;47.50
15489;BME280;7846;48.830;9.116;2022-12-29T11:46:26;97357.69;;;17.90;46.84
15489;BME280;7846;48.830;9.116;2022-12-29T11:48:54;97370.13;;;17.65;47.15
15489;BME280;7846;48.830;9.116;2022-12-29T11:51:43;97357.97;;;17.37;47.96
15489;BME280;7846;48.830;9.116;2022-12-29T11:54:25;97358.91;;;17.05;49.11
15489;BME280;7846;48.830;9.116;2022-12-29T11:56:53;97370.69;;;17.35;48.70
15489;BME280;7846;48.830;9.116;2022-12-29T12:01:56;97366.31;;;16.96;52.75
15489;BME280;7846;48.830;9.116;2022-12-29T12:04:30;97373.88;;;16.92;53.74
15489;BME280;7846;48.830;9.116;2022-12-29T12:07:15;97372.44;;;16.97;54.21
15489;BME280;7846;48.830;9.116;2022-12-29T12:09:51;97357.75;;;16.67;54.35
15489;BME280;7846;48.830;9.116;2022-12-29T12:12:29;97351.41;;;16.68;55.18
15489;BME280;7846;48.830;9.116;2022-12-29T12:14:58;97366.28;;;17.03;54.77
15489;BME280;7846;48.830;9.116;2022-12-29T12:17:43;97357.66;;;17.14;54.74
15489;BME280;7846;48.830;9.116;2022-12-29T12:20:32;97352.53;;;17.12;54.04
15489;BME280;7846;48.830;9.116;2022-12-29T12:25:59;97356.84;;;17.58;53.05
15489;BME280;7846;48.830;9.116;2022-12-29T12:28:40;97361.56;;;18.20;52.08
15489;BME280;7846;48.830;9.116;2022-12-29T12:31:18;97362.84;;;18.60;51.08
15489;BME280;7846;48.830;9.116;2022-12-29T12:33:47;97358.47;;;17.59;52.88
15489;BME280;7846;48.830;9.116;2022-12-29T12:50:02;97339.66;;;18.43;50.43
15489;BME280;7846;48.830;9.116;2022-12-29T12:55:35;97337.41;;;18.21;50.91
15489;BME280;7846;48.830;9.116;2022-12-29T13:04:06;97318.28;;;18.68;50.21
15489;BME280;7846;48.830;9.116;2022-12-29T13:06:51;97311.53;;;19.39;49.15
15489;BME280;7846;48.830;9.116;2022-12-29T13:09:31;97318.94;;;18.45;51.29
15489;BME280;7846;48.830;9.116;2022-12-29T13:17:50;97323.13;;;17.84;52.39
15489;BME280;7846;48.830;9.116;2022-12-29T13:20:30;97321.03;;;18.18;52.19
15489;BME280;7846;48.830;9.116;2022-12-29T13:25:57;97306.91;;;17.54;53.23
15489;BME280;7846;48.830;9.116;2022-12-29T13:31:07;97298.91;;;17.54;52.97
15489;BME280;7846;48.830;9.116;2022-12-29T13:33:47;97312.63;;;17.19;54.04
15489;BME280;7846;48.830;9.116;2022-12-29T13:36:46;97305.94;;;17.03;54.51
15489;BME280;7846;48.830;9.116;2022-12-29T13:39:18;97297.03;;;17.29;54.70
15489;BME280;7846;48.830;9.116;2022-12-29T13:41:55;97297.47;;;17.20;54.57
15489;BME280;7846;48.830;9.116;2022-12-29T13:44:28;97311.84;;;17.12;55.16
15489;BME280;7846;48.830;9.116;2022-12-29T13:46:58;97313.44;;;17.20;54.63
15489;BME280;7846;48.830;9.116;2022-12-29T13:49:26;97308.47;;;17.30;54.38
15489;BME280;7846;48.830;9.116;2022-12-29T13:51:55;97311.13;;;17.30;54.54
15489;BME280;7846;48.830;9.116;2022-12-29T13:59:44;97303.41;;;17.22;55.00
15489;BME280;7846;48.830;9.116;2022-12-29T14:02:25;97309.44;;;17.74;53.52
15489;BME280;7846;48.830;9.116;2022-12-29T14:05:02;97305.25;;;17.21;54.32
15489;BME280;7846;48.830;9.116;2022-12-29T14:07:29;97311.31;;;16.83;55.06
15489;BME280;7846;48.830;9.116;2022-12-29T14:10:06;97306.84;;;16.84;55.18
15489;BME280;7846;48.830;9.116;2022-12-29T14:12:50;97322.06;;;17.08;54.91
15489;BME280;7846;48.830;9.116;2022-12-29T14:15:22;97324.16;;;17.00;55.76
15489;BME280;7846;48.830;9.116;2022-12-29T14:18:13;97319.59;;;17.58;54.76
15489;BME280;7846;48.830;9.116;2022-12-29T14:20:57;97324.69;;;17.22;55.17
15489;BME280;7846;48.830;9.116;2022-12-29T14:26:00;97313.56;;;17.31;55.36
15489;BME280;7846;48.830;9.116;2022-12-29T14:28:35;97323.88;;;17.59;54.22
15489;BME280;7846;48.830;9.116;2022-12-29T14:31:05;97322.25;;;18.40;53.07
15489;BME280;7846;48.830;9.116;2022-12-29T14:33:32;97332.94;;;17.83;53.79
15489;BME280;7846;48.830;9.116;2022-12-29T14:36:18;97323.13;;;18.09;52.29
15489;BME280;7846;48.830;9.116;2022-12-29T14:38:45;97316.63;;;17.35;54.32
15489;BME280;7846;48.830;9.116;2022-12-29T14:41:24;97317.88;;;16.61;56.12
15489;BME280;7846;48.830;9.116;2022-12-29T14:43:58;97328.53;;;16.74;56.08
15489;BME280;7846;48.830;9.116;2022-12-29T14:46:42;97328.13;;;16.57;56.46
15489;BME280;7846;48.830;9.116;2022-12-29T14:49:15;97321.75;;;16.72;56.18
15489;BME280;7846;48.830;9.116;2022-12-29T14:51:43;97315.91;;;17.21;55.17
15489;BME280;7846;48.830;9.116;2022-12-29T14:57:09;97323.75;;;17.03;55.57
15489;BME280;7846;48.830;9.116;2022-12-29T14:59:38;97307.66;;;16.64;56.08
15489;BME280;7846;48.830;9.116;2022-12-29T15:02:16;97308.75;;;17.15;55.27